Point Hope, Alaska
Current Conditions -  °F | °C
As of 3:56 PM on Saturday 20 Dec 2014 (Local Time) from PAPO Reporting Station
Overcast Overcast  
Wind Chill: -18°   Ceiling: 3100
Heat Index:   Visibility: 3mi
Dew Point:   Wind: 35mph
Humidity: 85%   Direction: 10°N
Pressure: 29.55"   Gusts: 40mph
Location:  68.35°N, 166.81°W
Report Text: PAPO 210056Z 01030G35KT 3SM FEW011 SCT016 OVC031 M14/M16 A2955 RMK AO1
Loading
Personal Weather Stations






























Interactive Weather Map New forecast layout! Learn more

10-Day Weather Forecast

Advertisements
Track Severe Weather on mobile